Holly Ann — WDE9094 — position and weather

sailwx.info

Track history (hours):
 
Tides and Currents Weather Stations Pressure Air Temp Water Temp Dewpoint Dewpoint Depression Visibility Wind Speed Wind Dir Waves Ship Positions

Holly Ann

Owner: Manke Tug and Barge Co., Inc., Shelton, WA. More information available from US FCC via Universal Licensing System and Coast Guard Vessel Documentation Center.

Last reported at 2015-Jan-29 21:28 UTC. Time now 2015-Jan-29 22:32 UTC.
Position N 47°10' W 122°53'.

; draft 4.5 m.

Type: Towing. MMSI: 367413350.

Date/timePositionNaut miles runAvg speedWind from/ knotsBaromVisibWave heightAir tempDewpointWater temp
2015-Jan-29 21:28N 47°10' W 122°53'3 0.2
2015-Jan-29 07:18N 47°12' W 122°56'14 1.8
2015-Jan-28 23:33N 47°13' W 122°36'2 7.0
2015-Jan-28 23:14N 47°16' W 122°34'4 5.9
2015-Jan-28 22:33N 47°19' W 122°33'8 8.0
2015-Jan-28 21:33N 47°27' W 122°31'1 8.3
2015-Jan-28 21:29N 47°28' W 122°31'7 7.9
2015-Jan-28 20:34N 47°34' W 122°26'0 8.9
2015-Jan-28 20:33N 47°34' W 122°26'4 4.2
2015-Jan-28 19:33N 47°33' W 122°20'0 0.0
2015-Jan-28 19:28N 47°33' W 122°20'0 0.0
2015-Jan-28 18:33N 47°33' W 122°20'0 0.0
2015-Jan-28 17:33N 47°33' W 122°20'0 0.2
2015-Jan-28 17:31N 47°33' W 122°20'0 0.0
2015-Jan-28 16:33N 47°33' W 122°20'0 0.0
2015-Jan-28 16:25N 47°33' W 122°20'0 0.0
2015-Jan-28 15:33N 47°33' W 122°20'0 0.0
2015-Jan-28 15:26N 47°33' W 122°20'0 0.0
2015-Jan-28 14:31N 47°33' W 122°20'0 0.0
2015-Jan-28 14:30N 47°33' W 122°20'0 0.0
2015-Jan-28 13:33N 47°33' W 122°20'0 0.0
2015-Jan-28 13:20N 47°33' W 122°20'0 0.0
2015-Jan-28 12:33N 47°33' W 122°20'0 0.0
2015-Jan-28 12:30N 47°33' W 122°20'0 0.0
2015-Jan-28 11:33N 47°33' W 122°20'0 0.0
2015-Jan-28 11:25N 47°33' W 122°20'0 0.0
2015-Jan-28 10:26N 47°33' W 122°20'0 0.0
2015-Jan-28 09:48N 47°33' W 122°20'0 0.0
2015-Jan-28 09:29N 47°33' W 122°20'0 0.0
2015-Jan-28 09:29N 47°33' W 122°20'0 0.0
2015-Jan-28 08:29N 47°33' W 122°20'0 0.0
2015-Jan-28 08:28N 47°33' W 122°20'0 0.0
2015-Jan-28 07:33N 47°33' W 122°20'0 0.0
2015-Jan-28 07:29N 47°33' W 122°20'0 0.0
2015-Jan-28 06:59N 47°33' W 122°20'0 0.0
2015-Jan-28 06:33N 47°33' W 122°20'0 0.0
2015-Jan-28 05:32N 47°33' W 122°20'0 0.0
2015-Jan-28 04:53N 47°33' W 122°20'0 0.0
2015-Jan-28 04:33N 47°33' W 122°20'0 0.0
2015-Jan-28 04:33N 47°33' W 122°20'0 0.0
2015-Jan-28 03:33N 47°33' W 122°20'0 0.0
2015-Jan-28 03:33N 47°33' W 122°20'0 0.0
2015-Jan-28 02:33N 47°33' W 122°20'0 0.0
2015-Jan-28 02:33N 47°33' W 122°20'0 0.0
2015-Jan-28 01:33N 47°33' W 122°20'0 0.0
2015-Jan-28 01:22N 47°33' W 122°20'0 0.0
2015-Jan-28 00:33N 47°33' W 122°20'0 0.0
2015-Jan-28 00:33N 47°33' W 122°20'0 0.0
2015-Jan-27 23:33N 47°33' W 122°20'0 0.2
2015-Jan-27 23:32N 47°33' W 122°20'0 0.0
2015-Jan-27 22:33N 47°33' W 122°20'0 0.0
2015-Jan-27 22:22N 47°33' W 122°20'0 0.0
2015-Jan-27 21:29N 47°33' W 122°20'0 0.0
2015-Jan-27 21:22N 47°33' W 122°20'0 0.0
2015-Jan-27 20:33N 47°33' W 122°20'0 0.2
2015-Jan-27 20:31N 47°33' W 122°20'0 0.0
2015-Jan-27 19:33N 47°33' W 122°20'0 0.3
2015-Jan-27 19:32N 47°33' W 122°20'0 0.0
2015-Jan-27 18:33N 47°33' W 122°20'0 0.0
2015-Jan-27 18:32N 47°33' W 122°20'0 0.0
2015-Jan-27 17:33N 47°33' W 122°20'0 0.0
2015-Jan-27 17:26N 47°33' W 122°20'0 0.0
2015-Jan-27 16:33N 47°33' W 122°20'0 0.2
2015-Jan-27 16:32N 47°33' W 122°20'0 0.0
2015-Jan-27 15:33N 47°33' W 122°20'0 0.0
2015-Jan-27 15:32N 47°33' W 122°20'0 0.0
2015-Jan-27 14:33N 47°33' W 122°20'0 0.2
2015-Jan-27 14:32N 47°33' W 122°20'0 0.0
2015-Jan-27 13:33N 47°33' W 122°20'0 0.0
2015-Jan-27 13:31N 47°33' W 122°20'0 0.3
2015-Jan-27 12:33N 47°33' W 122°20'0 4.5
2015-Jan-27 12:31N 47°33' W 122°21'3 3.6
2015-Jan-27 11:33N 47°36' W 122°24'0 7.1
2015-Jan-27 11:30N 47°35' W 122°25'8 8.1
2015-Jan-27 10:34N 47°29' W 122°30'8 8.1
2015-Jan-27 09:33N 47°21' W 122°32'9 8.2
2015-Jan-27 08:31N 47°13' W 122°37'7 7.1
2015-Jan-27 07:28N 47°10' W 122°47'6 5.6
2015-Jan-27 06:20N 47°12' W 122°56'  
2015-Jan-24 13:27N 47°11' W 122°53'0 0.0
2015-Jan-24 12:16N 47°11' W 122°53'5 0.7
2015-Jan-24 05:19N 47°10' W 122°46'5 6.5
2015-Jan-24 04:33N 47°11' W 122°39'7 7.3
2015-Jan-24 03:33N 47°17' W 122°33'8 8.2
2015-Jan-24 02:33N 47°25' W 122°32'8 8.2
2015-Jan-24 01:33N 47°33' W 122°28'1 8.3
2015-Jan-24 01:24N 47°34' W 122°27'4 5.2
2015-Jan-24 00:33N 47°33' W 122°20'0 7.5
2015-Jan-24 00:33N 47°33' W 122°20'0 0.1
2015-Jan-23 23:33N 47°33' W 122°20'0 0.0
2015-Jan-23 23:32N 47°33' W 122°20'1 0.6
2015-Jan-23 22:33N 47°33' W 122°21'0 0.0
2015-Jan-23 22:32N 47°33' W 122°21'0 0.0
2015-Jan-23 21:33N 47°33' W 122°21'0 0.0
2015-Jan-23 21:32N 47°33' W 122°21'0 0.0
2015-Jan-23 20:33N 47°33' W 122°21'1 0.5
2015-Jan-23 19:33N 47°33' W 122°20'0 0.0
2015-Jan-23 18:30N 47°33' W 122°20'0 0.0
2015-Jan-23 17:28N 47°33' W 122°20'0 0.0
2015-Jan-23 16:30N 47°33' W 122°20'0 0.0
2015-Jan-23 15:08N 47°33' W 122°20'0 0.0
2015-Jan-23 14:30N 47°33' W 122°20'0 0.0
2015-Jan-23 13:33N 47°33' W 122°20'0 0.0
2015-Jan-23 12:33N 47°33' W 122°20'0 0.2
2015-Jan-23 11:33N 47°33' W 122°20'4 3.8
2015-Jan-23 10:32N 47°36' W 122°24'4 4.2
2015-Jan-23 09:33N 47°32' W 122°25'5 5.0
2015-Jan-23 08:33N 47°27' W 122°23'5 4.8
2015-Jan-23 07:33N 47°22' W 122°22'5 5.4
2015-Jan-23 06:33N 47°19' W 122°28'6 6.4
2015-Jan-23 05:33N 47°14' W 122°34'21 0.7
2015-Jan-22 00:16N 47°13' W 123°05'6 5.7
2015-Jan-21 23:11N 47°12' W 122°56'5 6.7
2015-Jan-21 22:24N 47°11' W 122°48'8 8.1
2015-Jan-21 21:27N 47°12' W 122°37'8 8.6
2015-Jan-21 20:33N 47°19' W 122°33'8 7.7
2015-Jan-21 19:33N 47°27' W 122°31'5 7.4
2015-Jan-21 18:50N 47°32' W 122°28'2 8.9
2015-Jan-21 18:33N 47°34' W 122°26'2 8.8
2015-Jan-21 18:20N 47°35' W 122°24'3 4.2
2015-Jan-21 17:31N 47°33' W 122°21'0 0.0
2015-Jan-21 17:29N 47°33' W 122°21'0 0.0
2015-Jan-21 16:33N 47°33' W 122°21'0 0.0
2015-Jan-21 16:19N 47°33' W 122°21'0 0.0
2015-Jan-21 15:34N 47°33' W 122°21'0 0.0
2015-Jan-21 15:30N 47°33' W 122°21'0 0.0
2015-Jan-21 14:33N 47°33' W 122°21'0 0.0
2015-Jan-21 14:29N 47°33' W 122°21'0 0.0
2015-Jan-21 13:34N 47°33' W 122°21'0 0.0
2015-Jan-21 13:29N 47°33' W 122°21'0 0.0
2015-Jan-21 12:33N 47°33' W 122°21'0 0.0
2015-Jan-21 12:29N 47°33' W 122°21'0 0.0
2015-Jan-21 11:33N 47°33' W 122°21'0 0.0
2015-Jan-21 11:33N 47°33' W 122°21'0 0.0
2015-Jan-21 10:33N 47°33' W 122°21'0 0.0
2015-Jan-21 10:29N 47°33' W 122°21'0 0.0
2015-Jan-21 09:33N 47°33' W 122°21'0 0.0
2015-Jan-21 09:33N 47°33' W 122°21'0 0.1
2015-Jan-21 08:34N 47°33' W 122°21'0 0.7
2015-Jan-21 08:33N 47°33' W 122°21'3 3.2
2015-Jan-21 07:34N 47°36' W 122°23'0 0.4
2015-Jan-21 07:33N 47°36' W 122°23'1 1.8
2015-Jan-21 07:02N 47°36' W 122°24'1 2.7
2015-Jan-21 06:33N 47°35' W 122°26'3 2.9
2015-Jan-21 05:34N 47°32' W 122°27'1 5.7
2015-Jan-21 05:26N 47°32' W 122°28'8 8.6
2015-Jan-21 04:34N 47°25' W 122°32'10 9.8
2015-Jan-21 03:33N 47°15' W 122°34'10 7.4
2015-Jan-21 02:14N 47°10' W 122°46'4 6.5
2015-Jan-21 01:32N 47°09' W 122°53'  
Track history (hours):
 
Tides and Currents Weather Stations Pressure Air Temp Water Temp Dewpoint Dewpoint Depression Visibility Wind Speed Wind Dir Waves Ship Positions

Holly Ann

Owner: Manke Tug and Barge Co., Inc., Shelton, WA. More information available from US FCC via Universal Licensing System and Coast Guard Vessel Documentation Center.

Last reported at 2015-Jan-29 21:28 UTC. Time now 2015-Jan-29 22:32 UTC.
Position N 47°10' W 122°53'.

; draft 4.5 m.

Type: Towing. MMSI: 367413350.

Date/timePositionNaut miles runAvg speedWind from/ knotsBaromVisibWave heightAir tempDewpointWater temp
2015-Jan-29 21:28N 47°10' W 122°53'3 0.2
2015-Jan-29 07:18N 47°12' W 122°56'14 1.8
2015-Jan-28 23:33N 47°13' W 122°36'2 7.0
2015-Jan-28 23:14N 47°16' W 122°34'4 5.9
2015-Jan-28 22:33N 47°19' W 122°33'8 8.0
2015-Jan-28 21:33N 47°27' W 122°31'1 8.3
2015-Jan-28 21:29N 47°28' W 122°31'7 7.9
2015-Jan-28 20:34N 47°34' W 122°26'0 8.9
2015-Jan-28 20:33N 47°34' W 122°26'4 4.2
2015-Jan-28 19:33N 47°33' W 122°20'0 0.0
2015-Jan-28 19:28N 47°33' W 122°20'0 0.0
2015-Jan-28 18:33N 47°33' W 122°20'0 0.0
2015-Jan-28 17:33N 47°33' W 122°20'0 0.2
2015-Jan-28 17:31N 47°33' W 122°20'0 0.0
2015-Jan-28 16:33N 47°33' W 122°20'0 0.0
2015-Jan-28 16:25N 47°33' W 122°20'0 0.0
2015-Jan-28 15:33N 47°33' W 122°20'0 0.0
2015-Jan-28 15:26N 47°33' W 122°20'0 0.0
2015-Jan-28 14:31N 47°33' W 122°20'0 0.0
2015-Jan-28 14:30N 47°33' W 122°20'0 0.0
2015-Jan-28 13:33N 47°33' W 122°20'0 0.0
2015-Jan-28 13:20N 47°33' W 122°20'0 0.0
2015-Jan-28 12:33N 47°33' W 122°20'0 0.0
2015-Jan-28 12:30N 47°33' W 122°20'0 0.0
2015-Jan-28 11:33N 47°33' W 122°20'0 0.0
2015-Jan-28 11:25N 47°33' W 122°20'0 0.0
2015-Jan-28 10:26N 47°33' W 122°20'0 0.0
2015-Jan-28 09:48N 47°33' W 122°20'0 0.0
2015-Jan-28 09:29N 47°33' W 122°20'0 0.0
2015-Jan-28 09:29N 47°33' W 122°20'0 0.0
2015-Jan-28 08:29N 47°33' W 122°20'0 0.0
2015-Jan-28 08:28N 47°33' W 122°20'0 0.0
2015-Jan-28 07:33N 47°33' W 122°20'0 0.0
2015-Jan-28 07:29N 47°33' W 122°20'0 0.0
2015-Jan-28 06:59N 47°33' W 122°20'0 0.0
2015-Jan-28 06:33N 47°33' W 122°20'0 0.0
2015-Jan-28 05:32N 47°33' W 122°20'0 0.0
2015-Jan-28 04:53N 47°33' W 122°20'0 0.0
2015-Jan-28 04:33N 47°33' W 122°20'0 0.0
2015-Jan-28 04:33N 47°33' W 122°20'0 0.0
2015-Jan-28 03:33N 47°33' W 122°20'0 0.0
2015-Jan-28 03:33N 47°33' W 122°20'0 0.0
2015-Jan-28 02:33N 47°33' W 122°20'0 0.0
2015-Jan-28 02:33N 47°33' W 122°20'0 0.0
2015-Jan-28 01:33N 47°33' W 122°20'0 0.0
2015-Jan-28 01:22N 47°33' W 122°20'0 0.0
2015-Jan-28 00:33N 47°33' W 122°20'0 0.0
2015-Jan-28 00:33N 47°33' W 122°20'0 0.0
2015-Jan-27 23:33N 47°33' W 122°20'0 0.2
2015-Jan-27 23:32N 47°33' W 122°20'0 0.0
2015-Jan-27 22:33N 47°33' W 122°20'0 0.0
2015-Jan-27 22:22N 47°33' W 122°20'0 0.0
2015-Jan-27 21:29N 47°33' W 122°20'0 0.0
2015-Jan-27 21:22N 47°33' W 122°20'0 0.0
2015-Jan-27 20:33N 47°33' W 122°20'0 0.2
2015-Jan-27 20:31N 47°33' W 122°20'0 0.0
2015-Jan-27 19:33N 47°33' W 122°20'0 0.3
2015-Jan-27 19:32N 47°33' W 122°20'0 0.0
2015-Jan-27 18:33N 47°33' W 122°20'0 0.0
2015-Jan-27 18:32N 47°33' W 122°20'0 0.0
2015-Jan-27 17:33N 47°33' W 122°20'0 0.0
2015-Jan-27 17:26N 47°33' W 122°20'0 0.0
2015-Jan-27 16:33N 47°33' W 122°20'0 0.2
2015-Jan-27 16:32N 47°33' W 122°20'0 0.0
2015-Jan-27 15:33N 47°33' W 122°20'0 0.0
2015-Jan-27 15:32N 47°33' W 122°20'0 0.0
2015-Jan-27 14:33N 47°33' W 122°20'0 0.2
2015-Jan-27 14:32N 47°33' W 122°20'0 0.0
2015-Jan-27 13:33N 47°33' W 122°20'0 0.0
2015-Jan-27 13:31N 47°33' W 122°20'0 0.3
2015-Jan-27 12:33N 47°33' W 122°20'0 4.5
2015-Jan-27 12:31N 47°33' W 122°21'3 3.6
2015-Jan-27 11:33N 47°36' W 122°24'0 7.1
2015-Jan-27 11:30N 47°35' W 122°25'8 8.1
2015-Jan-27 10:34N 47°29' W 122°30'8 8.1
2015-Jan-27 09:33N 47°21' W 122°32'9 8.2
2015-Jan-27 08:31N 47°13' W 122°37'7 7.1
2015-Jan-27 07:28N 47°10' W 122°47'6 5.6
2015-Jan-27 06:20N 47°12' W 122°56'  
2015-Jan-24 13:27N 47°11' W 122°53'0 0.0
2015-Jan-24 12:16N 47°11' W 122°53'5 0.7
2015-Jan-24 05:19N 47°10' W 122°46'5 6.5
2015-Jan-24 04:33N 47°11' W 122°39'7 7.3
2015-Jan-24 03:33N 47°17' W 122°33'8 8.2
2015-Jan-24 02:33N 47°25' W 122°32'8 8.2
2015-Jan-24 01:33N 47°33' W 122°28'1 8.3
2015-Jan-24 01:24N 47°34' W 122°27'4 5.2
2015-Jan-24 00:33N 47°33' W 122°20'0 7.5
2015-Jan-24 00:33N 47°33' W 122°20'0 0.1
2015-Jan-23 23:33N 47°33' W 122°20'0 0.0
2015-Jan-23 23:32N 47°33' W 122°20'1 0.6
2015-Jan-23 22:33N 47°33' W 122°21'0 0.0
2015-Jan-23 22:32N 47°33' W 122°21'0 0.0
2015-Jan-23 21:33N 47°33' W 122°21'0 0.0
2015-Jan-23 21:32N 47°33' W 122°21'0 0.0
2015-Jan-23 20:33N 47°33' W 122°21'1 0.5
2015-Jan-23 19:33N 47°33' W 122°20'0 0.0
2015-Jan-23 18:30N 47°33' W 122°20'0 0.0
2015-Jan-23 17:28N 47°33' W 122°20'0 0.0
2015-Jan-23 16:30N 47°33' W 122°20'0 0.0
2015-Jan-23 15:08N 47°33' W 122°20'0 0.0
2015-Jan-23 14:30N 47°33' W 122°20'0 0.0
2015-Jan-23 13:33N 47°33' W 122°20'0 0.0
2015-Jan-23 12:33N 47°33' W 122°20'0 0.2
2015-Jan-23 11:33N 47°33' W 122°20'4 3.8
2015-Jan-23 10:32N 47°36' W 122°24'4 4.2
2015-Jan-23 09:33N 47°32' W 122°25'5 5.0
2015-Jan-23 08:33N 47°27' W 122°23'5 4.8
2015-Jan-23 07:33N 47°22' W 122°22'5 5.4
2015-Jan-23 06:33N 47°19' W 122°28'6 6.4
2015-Jan-23 05:33N 47°14' W 122°34'21 0.7
2015-Jan-22 00:16N 47°13' W 123°05'6 5.7
2015-Jan-21 23:11N 47°12' W 122°56'5 6.7
2015-Jan-21 22:24N 47°11' W 122°48'8 8.1
2015-Jan-21 21:27N 47°12' W 122°37'8 8.6
2015-Jan-21 20:33N 47°19' W 122°33'8 7.7
2015-Jan-21 19:33N 47°27' W 122°31'5 7.4
2015-Jan-21 18:50N 47°32' W 122°28'2 8.9
2015-Jan-21 18:33N 47°34' W 122°26'2 8.8
2015-Jan-21 18:20N 47°35' W 122°24'3 4.2
2015-Jan-21 17:31N 47°33' W 122°21'0 0.0
2015-Jan-21 17:29N 47°33' W 122°21'0 0.0
2015-Jan-21 16:33N 47°33' W 122°21'0 0.0
2015-Jan-21 16:19N 47°33' W 122°21'0 0.0
2015-Jan-21 15:34N 47°33' W 122°21'0 0.0
2015-Jan-21 15:30N 47°33' W 122°21'0 0.0
2015-Jan-21 14:33N 47°33' W 122°21'0 0.0
2015-Jan-21 14:29N 47°33' W 122°21'0 0.0
2015-Jan-21 13:34N 47°33' W 122°21'0 0.0
2015-Jan-21 13:29N 47°33' W 122°21'0 0.0
2015-Jan-21 12:33N 47°33' W 122°21'0 0.0
2015-Jan-21 12:29N 47°33' W 122°21'0 0.0
2015-Jan-21 11:33N 47°33' W 122°21'0 0.0
2015-Jan-21 11:33N 47°33' W 122°21'0 0.0
2015-Jan-21 10:33N 47°33' W 122°21'0 0.0
2015-Jan-21 10:29N 47°33' W 122°21'0 0.0
2015-Jan-21 09:33N 47°33' W 122°21'0 0.0
2015-Jan-21 09:33N 47°33' W 122°21'0 0.1
2015-Jan-21 08:34N 47°33' W 122°21'0 0.7
2015-Jan-21 08:33N 47°33' W 122°21'3 3.2
2015-Jan-21 07:34N 47°36' W 122°23'0 0.4
2015-Jan-21 07:33N 47°36' W 122°23'1 1.8
2015-Jan-21 07:02N 47°36' W 122°24'1 2.7
2015-Jan-21 06:33N 47°35' W 122°26'3 2.9
2015-Jan-21 05:34N 47°32' W 122°27'1 5.7
2015-Jan-21 05:26N 47°32' W 122°28'8 8.6
2015-Jan-21 04:34N 47°25' W 122°32'10 9.8
2015-Jan-21 03:33N 47°15' W 122°34'10 7.4
2015-Jan-21 02:14N 47°10' W 122°46'4 6.5
2015-Jan-21 01:32N 47°09' W 122°53'  

Dump ship's entire track history